createdAt,value
2023-01-06T00:00:14.969Z,2.30
2023-01-06T00:02:54.925Z,1.95
2023-01-06T00:05:35.768Z,1.90
2023-01-06T00:08:21.931Z,1.80
2023-01-06T00:11:16.930Z,1.95
2023-01-06T00:14:03.923Z,1.60
2023-01-06T00:16:50.975Z,1.60
2023-01-06T00:19:31.047Z,1.80
2023-01-06T00:22:17.946Z,1.88
2023-01-06T00:24:58.019Z,1.50
2023-01-06T00:27:45.971Z,1.42
2023-01-06T00:30:32.948Z,1.63
2023-01-06T00:33:20.013Z,1.45
2023-01-06T00:36:05.959Z,1.73
2023-01-06T00:38:48.419Z,1.70
2023-01-06T00:41:52.948Z,1.77
2023-01-06T00:44:35.582Z,1.92
2023-01-06T00:47:24.940Z,3.70
2023-01-06T00:50:12.930Z,1.90
2023-01-06T00:52:55.002Z,2.47
2023-01-06T00:55:41.947Z,2.50
2023-01-06T00:58:21.975Z,2.90
2023-01-06T01:01:13.998Z,2.90
2023-01-06T01:03:54.018Z,3.28
2023-01-06T01:06:42.941Z,2.90
2023-01-06T01:09:32.941Z,3.05
2023-01-06T01:12:14.157Z,2.92
2023-01-06T01:17:48.920Z,3.15
2023-01-06T01:20:29.042Z,2.90
2023-01-06T01:23:15.955Z,2.53
2023-01-06T01:25:55.965Z,2.25
2023-01-06T01:28:42.946Z,2.10
2023-01-06T01:31:36.927Z,1.90
2023-01-06T01:34:24.956Z,1.50
2023-01-06T01:37:04.987Z,1.67
2023-01-06T01:39:51.926Z,2.22
2023-01-06T01:42:32.004Z,2.20
2023-01-06T01:45:33.918Z,1.90
2023-01-06T01:48:31.102Z,1.80
2023-01-06T01:51:20.920Z,1.80
2023-01-06T01:54:05.038Z,2.00
2023-01-06T01:56:56.988Z,1.80
2023-01-06T01:59:47.940Z,1.65
2023-01-06T02:02:38.049Z,1.98
2023-01-06T02:05:32.957Z,2.13
2023-01-06T02:08:28.050Z,1.90
2023-01-06T02:11:16.925Z,2.10
2023-01-06T02:14:07.022Z,1.88
2023-01-06T02:17:10.918Z,1.90
2023-01-06T02:20:07.007Z,1.92
2023-01-06T02:23:07.908Z,1.98
2023-01-06T02:26:08.649Z,1.90
2023-01-06T02:29:29.921Z,1.85
2023-01-06T02:32:42.974Z,1.90
2023-01-06T02:35:44.001Z,1.75
2023-01-06T02:39:08.942Z,1.85
2023-01-06T02:42:24.952Z,1.65
2023-01-06T02:45:23.990Z,1.80
2023-01-06T02:48:46.929Z,1.65
2023-01-06T02:51:38.487Z,1.75
2023-01-06T02:54:51.931Z,1.50
2023-01-06T02:57:54.941Z,1.52
2023-01-06T03:00:43.422Z,1.70
2023-01-06T03:03:35.926Z,1.58
2023-01-06T03:06:27.976Z,1.95
2023-01-06T03:09:11.928Z,1.73
2023-01-06T03:11:59.015Z,1.80
2023-01-06T03:14:43.919Z,1.67
2023-01-06T03:17:25.490Z,1.88
2023-01-06T03:22:58.969Z,1.75
2023-01-06T03:25:38.942Z,2.05
2023-01-06T03:28:25.985Z,2.30
2023-01-06T03:31:22.984Z,2.10
2023-01-06T03:34:08.010Z,2.17
2023-01-06T03:37:38.954Z,1.90
2023-01-06T03:40:25.938Z,1.75
2023-01-06T03:43:36.997Z,2.03
2023-01-06T03:46:44.990Z,2.05
2023-01-06T03:49:32.077Z,2.25
2023-01-06T03:52:46.929Z,1.60
2023-01-06T03:55:33.598Z,1.80
2023-01-06T03:58:23.937Z,1.70
2023-01-06T04:01:05.739Z,1.70
2023-01-06T04:03:54.008Z,1.83
2023-01-06T04:06:41.929Z,1.33
2023-01-06T04:09:35.953Z,1.38
2023-01-06T04:15:31.067Z,1.45
2023-01-06T04:18:19.946Z,1.63
2023-01-06T04:20:59.984Z,1.35
2023-01-06T04:23:46.945Z,1.60
2023-01-06T04:26:34.926Z,1.80
2023-01-06T04:29:22.103Z,1.40
2023-01-06T04:32:09.925Z,1.50
2023-01-06T04:34:50.986Z,1.50
2023-01-06T04:37:37.942Z,1.50
2023-01-06T04:40:17.994Z,1.38
2023-01-06T04:43:10.944Z,1.35
2023-01-06T04:45:51.023Z,1.80
2023-01-06T04:48:37.945Z,1.45
2023-01-06T04:51:17.985Z,1.65
2023-01-06T04:54:04.920Z,1.45
2023-01-06T04:56:44.974Z,1.73
2023-01-06T04:59:31.927Z,1.52
2023-01-06T05:02:12.001Z,1.60
2023-01-06T05:04:58.933Z,1.40
2023-01-06T05:07:45.947Z,1.55
2023-01-06T05:10:26.411Z,1.45
2023-01-06T05:13:12.929Z,1.40
2023-01-06T05:15:59.985Z,1.70
2023-01-06T05:18:39.982Z,1.60
2023-01-06T05:21:26.947Z,1.60
2023-01-06T05:24:13.925Z,1.50
2023-01-06T05:27:01.965Z,1.63
2023-01-06T05:29:42.006Z,1.40
2023-01-06T05:32:28.920Z,1.55
2023-01-06T05:35:15.939Z,1.60
2023-01-06T05:37:56.926Z,1.65
2023-01-06T05:43:31.990Z,1.80
2023-01-06T05:46:14.997Z,1.58
2023-01-06T05:49:01.937Z,1.85
2023-01-06T05:51:48.940Z,1.80
2023-01-06T05:54:29.442Z,1.50
2023-01-06T05:57:16.942Z,1.58
2023-01-06T06:00:03.955Z,1.58
2023-01-06T06:02:46.994Z,1.73
2023-01-06T06:05:33.947Z,1.30
2023-01-06T06:08:14.004Z,1.60
2023-01-06T06:11:00.928Z,1.60
2023-01-06T06:13:41.014Z,1.60
2023-01-06T06:16:31.000Z,1.55
2023-01-06T06:19:11.005Z,1.60
2023-01-06T06:21:58.961Z,1.70
2023-01-06T06:24:39.053Z,1.60
2023-01-06T06:27:34.952Z,1.50
2023-01-06T06:30:16.962Z,1.60
2023-01-06T06:33:03.945Z,1.50
2023-01-06T06:35:43.988Z,1.20
2023-01-06T06:38:30.930Z,1.17
2023-01-06T06:41:17.932Z,1.63
2023-01-06T06:43:58.474Z,1.90
2023-01-06T06:46:44.943Z,1.63
2023-01-06T06:49:25.420Z,1.70
2023-01-06T06:52:11.980Z,1.55
2023-01-06T06:54:52.445Z,1.60
2023-01-06T06:57:38.944Z,1.80
2023-01-06T07:00:25.997Z,1.80
2023-01-06T07:03:05.949Z,1.90
2023-01-06T07:05:56.001Z,2.13
2023-01-06T07:08:36.951Z,2.25
2023-01-06T07:11:18.120Z,2.10
2023-01-06T07:16:52.006Z,1.85
2023-01-06T07:19:31.992Z,2.10
2023-01-06T07:22:18.937Z,2.20
2023-01-06T07:25:05.964Z,1.70
2023-01-06T07:27:46.404Z,1.90
2023-01-06T07:30:32.931Z,1.60
2023-01-06T07:33:20.048Z,1.50
2023-01-06T07:36:01.933Z,1.70
2023-01-06T07:38:42.439Z,1.67
2023-01-06T07:41:28.941Z,1.65
2023-01-06T07:44:16.132Z,1.60
2023-01-06T07:47:04.940Z,1.60
2023-01-06T07:49:45.413Z,1.50
2023-01-06T07:52:31.970Z,1.35
2023-01-06T07:55:19.000Z,1.58
2023-01-06T07:57:59.953Z,1.73
2023-01-06T08:03:27.030Z,1.73
2023-01-06T08:06:16.930Z,1.67
2023-01-06T08:08:56.993Z,1.80
2023-01-06T08:11:43.981Z,1.60
2023-01-06T08:14:23.991Z,1.70
2023-01-06T08:17:10.949Z,1.75
2023-01-06T08:19:57.954Z,1.50
2023-01-06T08:22:44.966Z,1.50
2023-01-06T08:25:25.051Z,1.70
2023-01-06T08:28:11.936Z,1.50
2023-01-06T08:30:58.989Z,1.38
2023-01-06T08:33:46.944Z,1.70
2023-01-06T08:36:29.061Z,1.33
2023-01-06T08:39:15.933Z,1.70
2023-01-06T08:42:02.936Z,1.85
2023-01-06T08:44:43.438Z,1.50
2023-01-06T08:47:29.927Z,1.42
2023-01-06T08:50:10.555Z,1.60
2023-01-06T08:52:56.983Z,1.23
2023-01-06T08:55:48.010Z,1.65
2023-01-06T08:58:27.952Z,1.50
2023-01-06T09:01:16.487Z,1.58
2023-01-06T09:04:02.946Z,1.60
2023-01-06T09:06:50.034Z,1.27
2023-01-06T09:09:29.940Z,1.42
2023-01-06T09:12:16.933Z,1.15
2023-01-06T09:14:57.016Z,1.30
2023-01-06T09:17:43.954Z,1.25
2023-01-06T09:20:23.991Z,1.20
2023-01-06T09:23:11.964Z,1.15
2023-01-06T09:25:51.999Z,1.13
2023-01-06T09:28:38.966Z,1.27
2023-01-06T09:34:19.930Z,1.35
2023-01-06T09:37:00.112Z,0.85
2023-01-06T09:39:46.946Z,1.15
2023-01-06T09:45:27.949Z,1.00
2023-01-06T09:48:13.015Z,0.88
2023-01-06T09:51:04.940Z,1.00
2023-01-06T09:53:50.989Z,0.85
2023-01-06T09:56:37.945Z,0.98
2023-01-06T09:59:38.940Z,1.20
2023-01-06T10:02:46.951Z,1.10
2023-01-06T10:05:34.994Z,1.00
2023-01-06T10:08:24.993Z,1.15
2023-01-06T10:11:21.020Z,1.15
2023-01-06T10:14:16.964Z,1.30
2023-01-06T10:17:35.954Z,0.90
2023-01-06T10:20:28.598Z,1.35
2023-01-06T10:23:47.970Z,1.20
2023-01-06T10:26:31.487Z,1.13
2023-01-06T10:29:29.952Z,1.10
2023-01-06T10:32:29.943Z,1.20
2023-01-06T10:35:16.165Z,1.05
2023-01-06T10:38:04.951Z,1.15
2023-01-06T10:40:45.495Z,0.85
2023-01-06T10:43:31.961Z,0.98
2023-01-06T10:46:12.585Z,1.02
2023-01-06T10:48:59.972Z,1.00
2023-01-06T10:51:50.937Z,1.00
2023-01-06T10:54:36.441Z,1.15
2023-01-06T10:57:32.941Z,1.00
2023-01-06T11:00:23.972Z,0.80
2023-01-06T11:03:31.402Z,1.15
2023-01-06T11:06:40.976Z,1.10
2023-01-06T11:09:30.056Z,1.23
2023-01-06T11:12:19.990Z,0.98
2023-01-06T11:15:03.174Z,1.20
2023-01-06T11:17:49.952Z,0.90
2023-01-06T11:23:35.950Z,1.13
2023-01-06T11:26:23.665Z,0.90
2023-01-06T11:29:09.960Z,1.30
2023-01-06T11:31:50.956Z,0.93
2023-01-06T11:34:39.958Z,1.08
2023-01-06T11:37:49.997Z,0.70
2023-01-06T11:40:38.962Z,1.10
2023-01-06T11:43:30.579Z,1.20
2023-01-06T11:46:23.970Z,1.00
2023-01-06T11:49:18.813Z,0.98
2023-01-06T11:52:10.117Z,0.93
2023-01-06T11:55:03.976Z,1.10
2023-01-06T11:58:17.957Z,1.15
2023-01-06T12:01:18.987Z,1.20
2023-01-06T12:04:05.121Z,1.33
2023-01-06T12:06:52.984Z,1.30
2023-01-06T12:09:45.368Z,1.38
2023-01-06T12:12:33.981Z,1.08
2023-01-06T12:15:24.803Z,1.10
2023-01-06T12:18:24.979Z,1.20
2023-01-06T12:21:07.031Z,1.20
2023-01-06T12:23:55.988Z,1.30
2023-01-06T12:26:38.057Z,1.30
2023-01-06T12:29:27.963Z,1.00
2023-01-06T12:32:27.616Z,0.90
2023-01-06T12:35:20.002Z,1.20
2023-01-06T12:38:10.034Z,1.02
2023-01-06T12:41:07.973Z,1.45
2023-01-06T12:43:53.463Z,1.17
2023-01-06T12:46:51.970Z,1.60
2023-01-06T12:49:35.068Z,1.10
2023-01-06T12:52:51.975Z,1.10
2023-01-06T12:55:53.979Z,1.00
2023-01-06T12:58:46.305Z,1.33
2023-01-06T13:01:55.099Z,1.00
2023-01-06T13:04:35.475Z,1.10
2023-01-06T13:07:49.974Z,0.80
2023-01-06T13:10:39.428Z,1.00
2023-01-06T13:13:55.978Z,0.70
2023-01-06T13:17:03.329Z,0.80
2023-01-06T13:19:57.995Z,0.90
2023-01-06T13:22:38.416Z,0.90
2023-01-06T13:25:39.969Z,0.70
2023-01-06T13:28:26.968Z,0.93
2023-01-06T13:34:27.966Z,0.80
2023-01-06T13:37:35.984Z,1.00
2023-01-06T13:40:25.963Z,0.90
2023-01-06T13:43:14.314Z,0.82
2023-01-06T13:46:06.013Z,0.85
2023-01-06T13:48:52.120Z,1.85
2023-01-06T13:51:41.972Z,1.45
2023-01-06T13:54:58.041Z,1.60
2023-01-06T13:57:47.978Z,1.08
2023-01-06T14:00:37.024Z,1.10
2023-01-06T14:03:30.985Z,0.80
2023-01-06T14:06:13.020Z,0.75
2023-01-06T14:09:05.984Z,0.93
2023-01-06T14:11:53.976Z,0.90
2023-01-06T14:14:38.546Z,1.05
2023-01-06T14:17:53.985Z,1.10
2023-01-06T14:20:44.030Z,1.00
2023-01-06T14:23:29.979Z,0.77
2023-01-06T14:26:16.950Z,1.02
2023-01-06T14:28:58.869Z,1.20
2023-01-06T14:31:45.969Z,1.15
2023-01-06T14:34:28.099Z,1.20
2023-01-06T14:37:19.977Z,1.15
2023-01-06T14:40:03.036Z,1.08
2023-01-06T14:42:51.986Z,1.05
2023-01-06T14:45:36.043Z,0.80
2023-01-06T14:48:26.996Z,1.45
2023-01-06T14:51:08.021Z,0.90
2023-01-06T14:56:48.982Z,0.88
2023-01-06T14:59:35.961Z,0.98
2023-01-06T15:02:29.206Z,1.40
2023-01-06T15:05:25.499Z,0.90
2023-01-06T15:08:22.002Z,0.98
2023-01-06T15:11:20.286Z,1.10
2023-01-06T15:14:07.974Z,0.93
2023-01-06T15:16:54.980Z,1.05
2023-01-06T15:19:41.993Z,0.90
2023-01-06T15:22:25.390Z,1.02
2023-01-06T15:25:11.964Z,1.25
2023-01-06T15:27:57.299Z,1.10
2023-01-06T15:30:44.057Z,0.85
2023-01-06T15:33:43.986Z,0.82
2023-01-06T15:36:32.983Z,1.35
2023-01-06T15:39:16.123Z,0.95
2023-01-06T15:42:05.005Z,0.73
2023-01-06T15:44:46.084Z,0.90
2023-01-06T15:47:43.982Z,1.13
2023-01-06T15:50:28.084Z,0.82
2023-01-06T15:53:26.991Z,0.90
2023-01-06T15:56:08.069Z,1.10
2023-01-06T16:01:36.131Z,1.13
2023-01-06T16:04:24.041Z,1.25
2023-01-06T16:07:24.037Z,1.17
2023-01-06T16:10:43.970Z,1.30
2023-01-06T16:13:37.983Z,1.17
2023-01-06T16:16:25.053Z,1.85
2023-01-06T16:19:11.989Z,1.30
2023-01-06T16:22:01.045Z,1.50
2023-01-06T16:24:40.991Z,1.55
2023-01-06T16:27:26.104Z,1.45
2023-01-06T16:30:27.977Z,1.92
2023-01-06T16:33:41.017Z,1.55
2023-01-06T16:36:34.983Z,1.80
2023-01-06T16:39:22.041Z,1.67
2023-01-06T16:44:52.051Z,1.90
2023-01-06T16:47:31.999Z,1.98
2023-01-06T16:50:27.983Z,2.00
2023-01-06T16:53:10.093Z,2.45
2023-01-06T16:56:00.077Z,1.90
2023-01-06T16:58:42.044Z,2.10
2023-01-06T17:01:30.088Z,1.83
2023-01-06T17:04:11.133Z,3.17
2023-01-06T17:09:39.099Z,1.98
2023-01-06T17:15:32.989Z,2.33
2023-01-06T17:18:37.041Z,2.03
2023-01-06T17:21:22.994Z,1.98
2023-01-06T17:24:13.811Z,1.95
2023-01-06T17:27:11.982Z,2.13
2023-01-06T17:29:53.806Z,2.33
2023-01-06T17:35:35.979Z,2.47
2023-01-06T17:38:31.002Z,2.50
2023-01-06T17:41:12.348Z,2.25
2023-01-06T17:46:47.071Z,2.13
2023-01-06T17:49:34.029Z,2.35
2023-01-06T17:52:28.044Z,2.05
2023-01-06T17:55:32.979Z,2.25
2023-01-06T17:58:19.074Z,2.38
2023-01-06T18:01:06.089Z,2.10
2023-01-06T18:03:54.043Z,2.00
2023-01-06T18:06:44.982Z,1.98
2023-01-06T18:09:25.607Z,2.10
2023-01-06T18:12:14.983Z,1.65
2023-01-06T18:14:55.766Z,1.90
2023-01-06T18:17:42.011Z,2.30
2023-01-06T18:20:22.711Z,1.92
2023-01-06T18:23:10.001Z,2.00
2023-01-06T18:25:55.875Z,1.90
2023-01-06T18:28:43.024Z,1.90
2023-01-06T18:31:30.100Z,1.80
2023-01-06T18:34:29.983Z,2.20
2023-01-06T18:37:10.080Z,2.17
2023-01-06T18:39:59.994Z,2.25
2023-01-06T18:42:47.126Z,2.90
2023-01-06T18:45:42.010Z,2.50
2023-01-06T18:48:40.005Z,2.83
2023-01-06T18:51:29.997Z,2.45
2023-01-06T18:54:25.056Z,3.00
2023-01-06T18:57:26.004Z,3.30
2023-01-06T19:00:50.086Z,3.03
2023-01-06T19:03:41.373Z,3.72
2023-01-06T19:06:30.999Z,3.00
2023-01-06T19:09:41.885Z,3.45
2023-01-06T19:12:32.038Z,3.53
2023-01-06T19:15:22.313Z,3.40
2023-01-06T19:18:01.999Z,3.30
2023-01-06T19:20:50.002Z,4.18
2023-01-06T19:23:39.000Z,4.85
2023-01-06T19:26:32.478Z,4.70
2023-01-06T19:29:24.989Z,4.60
2023-01-06T19:32:19.985Z,4.65
2023-01-06T19:35:07.341Z,5.40
2023-01-06T19:37:46.989Z,5.18
2023-01-06T19:40:37.006Z,5.38
2023-01-06T19:43:29.987Z,6.25
2023-01-06T19:46:22.219Z,6.05
2023-01-06T19:49:08.998Z,6.82
2023-01-06T19:51:52.931Z,6.60
2023-01-06T19:54:42.000Z,5.88
2023-01-06T19:57:34.985Z,7.00
2023-01-06T20:00:39.040Z,7.03
2023-01-06T20:03:31.994Z,7.75
2023-01-06T20:06:20.018Z,7.32
2023-01-06T20:09:06.991Z,7.18
2023-01-06T20:11:47.707Z,7.38
2023-01-06T20:14:34.005Z,7.40
2023-01-06T20:17:14.665Z,7.68
2023-01-06T20:20:01.021Z,6.93
2023-01-06T20:22:41.067Z,7.35
2023-01-06T20:25:29.014Z,7.20
2023-01-06T20:28:09.064Z,6.97
2023-01-06T20:30:56.012Z,6.28
2023-01-06T20:33:36.052Z,6.50
2023-01-06T20:36:24.006Z,6.75
2023-01-06T20:39:04.065Z,6.70
2023-01-06T20:41:50.999Z,6.93
2023-01-06T20:44:37.985Z,7.40
2023-01-06T20:47:18.552Z,6.93
2023-01-06T20:50:04.987Z,7.45
2023-01-06T20:52:52.009Z,6.97
2023-01-06T20:55:32.050Z,7.25
2023-01-06T20:58:19.005Z,7.18
2023-01-06T21:00:59.172Z,6.65
2023-01-06T21:03:45.988Z,6.63
2023-01-06T21:06:26.052Z,6.90
2023-01-06T21:09:13.000Z,6.30
2023-01-06T21:12:00.003Z,6.75
2023-01-06T21:14:47.006Z,6.90
2023-01-06T21:17:27.059Z,6.43
2023-01-06T21:20:15.018Z,6.72
2023-01-06T21:22:55.046Z,6.53
2023-01-06T21:25:42.006Z,6.80
2023-01-06T21:28:22.127Z,7.30
2023-01-06T21:31:09.098Z,6.97
2023-01-06T21:33:56.050Z,8.25
2023-01-06T21:36:36.006Z,7.65
2023-01-06T21:39:23.078Z,7.47
2023-01-06T21:42:22.000Z,7.43
2023-01-06T21:45:09.061Z,7.50
2023-01-06T21:47:49.005Z,7.53
2023-01-06T21:50:37.118Z,8.18
2023-01-06T21:53:19.020Z,7.90
2023-01-06T21:56:01.019Z,8.10
2023-01-06T21:58:49.014Z,7.88
2023-01-06T22:01:29.869Z,7.75
2023-01-06T22:07:15.998Z,8.60
2023-01-06T22:10:06.059Z,9.13
2023-01-06T22:12:55.030Z,8.55
2023-01-06T22:15:35.933Z,9.07
2023-01-06T22:21:10.089Z,9.48
2023-01-06T22:23:50.021Z,9.13
2023-01-06T22:26:37.065Z,9.13
2023-01-06T22:29:18.013Z,9.40
2023-01-06T22:35:04.988Z,8.85
2023-01-06T22:37:45.599Z,8.73
2023-01-06T22:40:32.008Z,8.25
2023-01-06T22:43:19.065Z,8.68
2023-01-06T22:46:03.056Z,8.73
2023-01-06T22:48:50.421Z,9.23
2023-01-06T22:51:30.015Z,9.02
2023-01-06T22:54:17.002Z,9.63
2023-01-06T22:57:04.004Z,9.38
2023-01-06T22:59:51.107Z,8.70
2023-01-06T23:02:31.171Z,9.35
2023-01-06T23:05:18.056Z,9.70
2023-01-06T23:07:58.034Z,8.90
2023-01-06T23:10:38.487Z,9.52
2023-01-06T23:13:24.981Z,8.55
2023-01-06T23:16:15.806Z,7.80
2023-01-06T23:19:03.006Z,8.30
2023-01-06T23:21:44.678Z,7.55
2023-01-06T23:27:12.464Z,7.45
2023-01-06T23:32:52.986Z,7.47
2023-01-06T23:35:40.008Z,7.25
2023-01-06T23:38:27.001Z,7.28
2023-01-06T23:41:25.018Z,8.05
2023-01-06T23:44:06.064Z,8.18
2023-01-06T23:49:40.002Z,8.00
2023-01-06T23:52:27.038Z,7.72
2023-01-06T23:55:07.011Z,8.23
2023-01-06T23:57:54.016Z,7.78
